Briefing drone pour Villeurbanne

Rechercher une autre localisation

Conditions de vol :


Nous sommes le : Jeudi 28 septembre 2023
Il est 04:38 UTC (06:38 LT)

Lever de soleil : 05:08 UTC (07:08 LT)
Coucher de soleil : 17:54 UTC (19:54 LT)

Météo

L'essentiel des conditions de vol

VIGILANCE MÉTÉO FRANCE - Rhône (69)
Pas de vigilances particulieres
CARTE TEMSI
CARTES DES FRONTS
METAR de LFLL
LFLL 280430Z 17002KT CAVOK 17/11 Q1019 NOSIG

Date d'émission: 28/09/2023
Heure d'émission: 04:30 UTC
Vent: 170° pour 2 KT (4 km/h)
Visibilité horizontale: > 10 km
Plafond : Plafond et visibilité OK (CAVOK)
Température: 17 °C
Point de rosée: 11 °C
Humidité: 68%
Pression (QNH): 1019 hPa
Conditions: Pas de changement dans les 2 heures (NOSIG)
TAF de LFLL
LFLL 271700Z 2718/2824 14005KT CAVOK

Conditions prévues :

Heure d'émission : Bulletin éffectué le 27 à 18:00 UTC
Prévision : Valide du 27 a 18:00 UTC au 28 a 23:59 UTC
Vent : 140° pour 5 KT (9 km/h)
Visibilité : > 10 km
WEBCAM POUR VILLEURBANNE

Réglementation

Voler en sécurité

CARTES AERONAUTIQUE 1/500.000
CARTE AZBA (Reseau basse altitude)
CARTES VAC (LFLL)
SUP AIP




Chargement des AIP...
NOTAM (VILLEURBANNE + Terrain à proximité / FIR )




Chargement des NOTAMS...
CONTACT PREFECTURE 69
Rhône (69) : [email protected]


Avertissement : Les données mises à disposition sont indicatives. Oxygène Drone ne pourra être tenu responsable de dégâts causés aux biens et aux personnes.